sensor_id;sensor_type;location;lat;lon;timestamp;temperature;humidity
22858;DHT22;13919;45.644;13.764;2022-07-05T16:48:15;30.90;99.90
22858;DHT22;13919;45.644;13.764;2022-07-05T16:55:33;42.10;97.40
22858;DHT22;13919;45.644;13.764;2022-07-05T16:57:58;43.10;92.00
22858;DHT22;13919;45.644;13.764;2022-07-05T17:00:30;44.10;85.00
22858;DHT22;13919;45.644;13.764;2022-07-05T17:02:57;45.30;75.60
22858;DHT22;13919;45.644;13.764;2022-07-05T17:05:23;46.50;67.90
22858;DHT22;13919;45.644;13.764;2022-07-05T17:10:15;48.50;57.00
22858;DHT22;13919;45.644;13.764;2022-07-05T17:12:41;46.90;56.70
22858;DHT22;13919;45.644;13.764;2022-07-05T17:15:08;44.00;62.40
22858;DHT22;13919;45.644;13.764;2022-07-05T17:17:34;43.30;65.80
22858;DHT22;13919;45.644;13.764;2022-07-05T17:20:00;42.50;69.10
22858;DHT22;13919;45.644;13.764;2022-07-05T17:22:26;41.10;72.50
22858;DHT22;13919;45.644;13.764;2022-07-05T17:24:52;40.90;72.90
22858;DHT22;13919;45.644;13.764;2022-07-05T17:27:18;41.10;71.40
22858;DHT22;13919;45.644;13.764;2022-07-05T17:29:43;39.30;73.70
22858;DHT22;13919;45.644;13.764;2022-07-05T17:32:09;38.80;77.10
22858;DHT22;13919;45.644;13.764;2022-07-05T17:34:35;39.70;76.70
22858;DHT22;13919;45.644;13.764;2022-07-05T17:37:00;39.60;76.50
22858;DHT22;13919;45.644;13.764;2022-07-05T17:39:26;39.50;77.00
22858;DHT22;13919;45.644;13.764;2022-07-05T17:41:52;40.30;77.10
22858;DHT22;13919;45.644;13.764;2022-07-05T17:44:17;40.50;74.50
22858;DHT22;13919;45.644;13.764;2022-07-05T17:46:43;40.20;76.40
22858;DHT22;13919;45.644;13.764;2022-07-05T17:49:09;39.20;78.90
22858;DHT22;13919;45.644;13.764;2022-07-05T17:51:35;38.10;81.60
22858;DHT22;13919;45.644;13.764;2022-07-05T17:56:27;35.70;89.00
22858;DHT22;13919;45.644;13.764;2022-07-05T17:58:53;35.20;91.50
22858;DHT22;13919;45.644;13.764;2022-07-05T18:01:19;34.40;93.80
22858;DHT22;13919;45.644;13.764;2022-07-05T18:06:13;34.00;96.90
22858;DHT22;13919;45.644;13.764;2022-07-05T18:08:40;33.10;99.90
22858;DHT22;13919;45.644;13.764;2022-07-05T18:11:05;32.90;99.90
22858;DHT22;13919;45.644;13.764;2022-07-05T18:13:31;32.60;99.90
22858;DHT22;13919;45.644;13.764;2022-07-05T18:15:57;32.20;99.90
22858;DHT22;13919;45.644;13.764;2022-07-05T18:18:23;31.90;99.90
22858;DHT22;13919;45.644;13.764;2022-07-05T18:20:49;31.70;99.90
22858;DHT22;13919;45.644;13.764;2022-07-05T18:23:15;31.50;99.90
22858;DHT22;13919;45.644;13.764;2022-07-05T18:25:41;31.30;99.90
22858;DHT22;13919;45.644;13.764;2022-07-05T18:28:08;31.20;99.90
22858;DHT22;13919;45.644;13.764;2022-07-05T18:30:35;31.10;99.90
22858;DHT22;13919;45.644;13.764;2022-07-05T18:33:01;31.00;99.90
22858;DHT22;13919;45.644;13.764;2022-07-05T18:35:27;30.90;99.90
22858;DHT22;13919;45.644;13.764;2022-07-05T18:37:52;30.70;99.90
22858;DHT22;13919;45.644;13.764;2022-07-05T18:40:18;30.50;99.90
22858;DHT22;13919;45.644;13.764;2022-07-05T18:42:44;30.40;99.90
22858;DHT22;13919;45.644;13.764;2022-07-05T18:45:09;30.30;99.90
22858;DHT22;13919;45.644;13.764;2022-07-05T18:47:36;30.20;99.90
22858;DHT22;13919;45.644;13.764;2022-07-05T18:50:03;30.10;99.90
22858;DHT22;13919;45.644;13.764;2022-07-05T19:15:21;30.00;99.90
22858;DHT22;13919;45.644;13.764;2022-07-05T19:17:48;29.50;99.90
22858;DHT22;13919;45.644;13.764;2022-07-05T19:20:14;29.40;99.90
22858;DHT22;13919;45.644;13.764;2022-07-05T19:22:42;29.40;99.90
22858;DHT22;13919;45.644;13.764;2022-07-05T19:25:08;29.40;99.90
22858;DHT22;13919;45.644;13.764;2022-07-05T19:27:34;29.40;99.90
22858;DHT22;13919;45.644;13.764;2022-07-05T19:29:59;29.30;99.90
22858;DHT22;13919;45.644;13.764;2022-07-05T19:32:25;29.20;99.90
22858;DHT22;13919;45.644;13.764;2022-07-05T20:23:36;29.10;99.90
22858;DHT22;13919;45.644;13.764;2022-07-05T20:26:02;28.20;99.90
22858;DHT22;13919;45.644;13.764;2022-07-05T20:28:28;28.10;99.90
22858;DHT22;13919;45.644;13.764;2022-07-05T20:30:54;28.00;99.90
22858;DHT22;13919;45.644;13.764;2022-07-05T20:33:20;27.90;99.90
22858;DHT22;13919;45.644;13.764;2022-07-05T20:38:13;27.70;99.90
22858;DHT22;13919;45.644;13.764;2022-07-05T20:40:39;27.70;99.90
22858;DHT22;13919;45.644;13.764;2022-07-05T20:43:07;27.60;99.90
22858;DHT22;13919;45.644;13.764;2022-07-05T20:47:59;27.60;99.90
22858;DHT22;13919;45.644;13.764;2022-07-05T20:50:25;27.70;99.90
22858;DHT22;13919;45.644;13.764;2022-07-05T20:52:51;27.70;99.90
